createdAt,value
2023-01-07T00:01:29.749Z,75.50
2023-01-07T00:03:58.662Z,75.45
2023-01-07T00:06:29.476Z,75.34
2023-01-07T00:08:58.488Z,75.42
2023-01-07T00:11:32.334Z,75.17
2023-01-07T00:14:01.041Z,74.57
2023-01-07T00:16:31.329Z,74.60
2023-01-07T00:19:01.118Z,74.75
2023-01-07T00:21:29.586Z,74.74
2023-01-07T00:24:02.081Z,74.52
2023-01-07T00:26:35.209Z,74.25
2023-01-07T00:29:02.383Z,74.24
2023-01-07T00:31:32.661Z,74.71
2023-01-07T00:34:00.206Z,74.58
2023-01-07T00:36:30.081Z,74.24
2023-01-07T00:39:00.156Z,74.27
2023-01-07T00:41:28.096Z,74.88
2023-01-07T00:43:56.291Z,74.58
2023-01-07T00:46:24.075Z,75.11
2023-01-07T00:48:51.304Z,74.88
2023-01-07T00:51:19.325Z,74.84
2023-01-07T00:53:47.095Z,74.79
2023-01-07T00:56:16.284Z,74.23
2023-01-07T00:58:43.539Z,73.50
2023-01-07T01:01:12.105Z,73.27
2023-01-07T01:03:40.573Z,73.36
2023-01-07T01:06:13.332Z,73.77
2023-01-07T01:08:45.555Z,73.83
2023-01-07T01:11:15.337Z,73.87
2023-01-07T01:13:43.956Z,74.48
2023-01-07T01:16:14.847Z,74.21
2023-01-07T01:18:42.431Z,73.70
2023-01-07T01:21:11.689Z,73.07
2023-01-07T01:23:39.548Z,73.13
2023-01-07T01:26:12.944Z,72.56
2023-01-07T01:28:40.623Z,72.91
2023-01-07T01:31:09.550Z,72.85
2023-01-07T01:33:47.073Z,73.29
2023-01-07T01:36:14.396Z,73.27
2023-01-07T01:38:42.045Z,73.14
2023-01-07T01:41:10.340Z,73.18
2023-01-07T01:43:42.262Z,73.15
2023-01-07T01:46:18.332Z,72.78
2023-01-07T01:48:51.423Z,72.97
2023-01-07T01:51:22.528Z,72.95
2023-01-07T01:53:51.085Z,73.17
2023-01-07T01:56:22.648Z,72.68
2023-01-07T01:58:54.551Z,72.50
2023-01-07T02:01:21.893Z,72.55
2023-01-07T02:03:50.372Z,72.78
2023-01-07T02:06:32.825Z,73.27
2023-01-07T02:09:00.451Z,72.95
2023-01-07T02:11:46.272Z,73.61
2023-01-07T02:14:22.712Z,73.17
2023-01-07T02:17:12.387Z,73.42
2023-01-07T02:19:51.471Z,73.73
2023-01-07T02:22:18.519Z,73.40
2023-01-07T02:25:07.989Z,73.19
2023-01-07T02:27:50.357Z,72.67
2023-01-07T02:30:45.093Z,72.59
2023-01-07T02:33:58.874Z,72.78
2023-01-07T02:36:32.279Z,72.53
2023-01-07T02:39:12.770Z,72.24
2023-01-07T02:41:46.229Z,72.30
2023-01-07T02:44:45.740Z,73.20
2023-01-07T02:47:28.678Z,72.81
2023-01-07T02:49:58.873Z,72.93
2023-01-07T02:52:29.034Z,73.16
2023-01-07T02:55:11.390Z,72.63
2023-01-07T02:57:58.605Z,73.25
2023-01-07T03:01:02.867Z,72.86
2023-01-07T03:03:52.444Z,72.55
2023-01-07T03:06:47.429Z,72.92
2023-01-07T03:09:23.727Z,72.42
2023-01-07T03:12:05.641Z,72.09
2023-01-07T03:14:50.776Z,71.97
2023-01-07T03:17:24.512Z,72.70
2023-01-07T03:19:56.743Z,72.47
2023-01-07T03:22:27.707Z,72.68
2023-01-07T03:24:58.561Z,72.26
2023-01-07T03:27:28.984Z,71.83
2023-01-07T03:29:57.162Z,72.29
2023-01-07T03:32:38.517Z,71.66
2023-01-07T03:35:06.189Z,72.13
2023-01-07T03:37:34.493Z,72.08
2023-01-07T03:40:06.736Z,71.91
2023-01-07T03:42:42.855Z,72.02
2023-01-07T03:45:25.635Z,71.69
2023-01-07T03:47:57.858Z,72.09
2023-01-07T03:50:30.196Z,72.01
2023-01-07T03:52:57.440Z,72.05
2023-01-07T03:55:25.368Z,72.00
2023-01-07T03:57:56.824Z,71.66
2023-01-07T04:00:25.718Z,71.79
2023-01-07T04:03:12.061Z,71.97
2023-01-07T04:05:42.551Z,72.04
2023-01-07T04:08:10.944Z,72.26
2023-01-07T04:10:40.053Z,71.97
2023-01-07T04:13:07.445Z,72.10
2023-01-07T04:15:35.935Z,72.05
2023-01-07T04:18:03.562Z,71.69
2023-01-07T04:20:31.164Z,71.86
2023-01-07T04:22:58.283Z,71.38
2023-01-07T04:25:25.398Z,71.82
2023-01-07T04:27:53.069Z,71.42
2023-01-07T04:30:20.409Z,71.60
2023-01-07T04:32:47.517Z,71.69
2023-01-07T04:35:14.862Z,72.09
2023-01-07T04:37:41.995Z,71.45
2023-01-07T04:40:09.854Z,72.01
2023-01-07T04:42:38.002Z,71.57
2023-01-07T04:45:08.176Z,72.02
2023-01-07T04:47:35.619Z,71.92
2023-01-07T04:50:03.745Z,71.16
2023-01-07T04:52:33.358Z,71.46
2023-01-07T04:55:00.727Z,71.54
2023-01-07T04:57:29.810Z,71.63
2023-01-07T04:59:57.074Z,70.81
2023-01-07T05:02:24.482Z,71.04
2023-01-07T05:04:52.907Z,71.29
2023-01-07T05:07:21.609Z,71.10
2023-01-07T05:09:49.112Z,71.60
2023-01-07T05:12:16.216Z,71.16
2023-01-07T05:14:44.807Z,71.32
2023-01-07T05:17:12.507Z,71.13
2023-01-07T05:19:40.335Z,71.12
2023-01-07T05:22:10.568Z,70.65
2023-01-07T05:24:40.171Z,71.19
2023-01-07T05:27:08.608Z,70.48
2023-01-07T05:29:38.145Z,70.79
2023-01-07T05:32:05.478Z,70.86
2023-01-07T05:34:33.195Z,70.91
2023-01-07T05:37:00.272Z,70.49
2023-01-07T05:39:27.514Z,70.96
2023-01-07T05:41:54.959Z,70.82
2023-01-07T05:44:24.418Z,70.86
2023-01-07T05:46:51.595Z,71.07
2023-01-07T05:49:18.774Z,70.73
2023-01-07T05:51:45.879Z,70.89
2023-01-07T05:54:13.014Z,70.65
2023-01-07T05:56:40.450Z,70.80
2023-01-07T05:59:07.486Z,70.72
2023-01-07T06:01:34.717Z,70.42
2023-01-07T06:04:01.913Z,70.67
2023-01-07T06:06:28.984Z,70.82
2023-01-07T06:08:56.172Z,70.98
2023-01-07T06:11:23.259Z,70.71
2023-01-07T06:13:50.465Z,71.00
2023-01-07T06:16:17.779Z,71.09
2023-01-07T06:18:44.876Z,70.72
2023-01-07T06:21:12.168Z,70.99
2023-01-07T06:23:39.440Z,71.31
2023-01-07T06:26:06.537Z,71.36
2023-01-07T06:28:33.728Z,71.43
2023-01-07T06:31:00.875Z,71.22
2023-01-07T06:33:28.238Z,71.17
2023-01-07T06:35:55.404Z,70.93
2023-01-07T06:38:22.885Z,71.21
2023-01-07T06:40:49.939Z,71.08
2023-01-07T06:43:17.125Z,71.16
2023-01-07T06:45:44.275Z,70.94
2023-01-07T06:48:11.502Z,71.04
2023-01-07T06:50:38.760Z,71.20
2023-01-07T06:53:05.884Z,71.01
2023-01-07T06:55:39.006Z,70.72
2023-01-07T06:58:06.529Z,70.71
2023-01-07T07:00:33.652Z,71.11
2023-01-07T07:03:00.915Z,70.93
2023-01-07T07:05:28.614Z,70.84
2023-01-07T07:07:58.989Z,71.27
2023-01-07T07:10:27.749Z,71.20
2023-01-07T07:12:55.316Z,70.89
2023-01-07T07:15:22.637Z,71.20
2023-01-07T07:17:52.430Z,71.74
2023-01-07T07:20:20.944Z,71.65
2023-01-07T07:22:48.661Z,71.34
2023-01-07T07:25:29.952Z,71.55
2023-01-07T07:28:01.815Z,72.02
2023-01-07T07:30:45.276Z,71.87
2023-01-07T07:33:28.468Z,71.87
2023-01-07T07:35:56.377Z,72.15
2023-01-07T07:38:23.420Z,71.86
2023-01-07T07:40:50.487Z,72.55
2023-01-07T07:43:17.808Z,71.92
2023-01-07T07:45:47.859Z,72.07
2023-01-07T07:48:15.918Z,72.57
2023-01-07T07:50:43.175Z,72.58
2023-01-07T07:53:15.320Z,72.29
2023-01-07T07:55:42.511Z,72.10
2023-01-07T07:58:09.703Z,72.38
2023-01-07T08:00:36.912Z,72.56
2023-01-07T08:03:04.862Z,72.77
2023-01-07T08:05:32.043Z,72.30
2023-01-07T08:07:59.224Z,72.07
2023-01-07T08:10:27.372Z,72.16
2023-01-07T08:12:54.594Z,72.32
2023-01-07T08:15:21.739Z,72.00
2023-01-07T08:17:48.981Z,72.42
2023-01-07T08:20:16.075Z,71.26
2023-01-07T08:22:43.168Z,71.60
2023-01-07T08:25:10.635Z,71.65
2023-01-07T08:27:37.752Z,71.56
2023-01-07T08:30:05.665Z,71.71
2023-01-07T08:32:32.866Z,71.61
2023-01-07T08:35:00.219Z,71.35
2023-01-07T08:37:30.350Z,70.89
2023-01-07T08:39:57.738Z,70.86
2023-01-07T08:42:24.946Z,71.41
2023-01-07T08:44:52.055Z,71.33
2023-01-07T08:47:19.226Z,71.37
2023-01-07T08:49:46.669Z,71.45
2023-01-07T08:52:13.802Z,71.88
2023-01-07T08:54:41.068Z,72.56
2023-01-07T08:57:08.215Z,71.17
2023-01-07T08:59:35.450Z,71.01
2023-01-07T09:02:02.908Z,70.65
2023-01-07T09:04:30.251Z,70.85
2023-01-07T09:06:57.561Z,70.85
2023-01-07T09:09:24.600Z,70.65
2023-01-07T09:11:51.738Z,70.37
2023-01-07T09:14:18.820Z,70.26
2023-01-07T09:16:46.119Z,70.51
2023-01-07T09:19:13.235Z,71.21
2023-01-07T09:21:40.436Z,71.11
2023-01-07T09:24:08.003Z,71.27
2023-01-07T09:26:35.466Z,71.66
2023-01-07T09:29:02.899Z,72.11
2023-01-07T09:31:30.699Z,71.92
2023-01-07T09:33:57.816Z,71.68
2023-01-07T09:36:27.241Z,71.20
2023-01-07T09:38:54.756Z,70.63
2023-01-07T09:41:36.775Z,70.23
2023-01-07T09:44:19.161Z,70.56
2023-01-07T09:46:50.071Z,69.50
2023-01-07T09:49:19.687Z,70.06
2023-01-07T09:51:53.416Z,69.85
2023-01-07T09:54:26.502Z,70.09
2023-01-07T09:56:53.764Z,69.80
2023-01-07T09:59:21.037Z,69.85
2023-01-07T10:01:55.378Z,70.35
2023-01-07T10:04:51.184Z,70.97
2023-01-07T10:07:39.482Z,73.61
2023-01-07T10:10:28.755Z,71.46
2023-01-07T10:13:05.126Z,71.17
2023-01-07T10:15:50.197Z,71.95
2023-01-07T10:18:47.288Z,71.24
2023-01-07T10:21:34.057Z,71.76
2023-01-07T10:24:28.881Z,71.30
2023-01-07T10:27:01.307Z,71.26
2023-01-07T10:29:36.687Z,71.24
2023-01-07T10:32:21.941Z,71.65
2023-01-07T10:34:54.332Z,73.05
2023-01-07T10:37:27.632Z,71.43
2023-01-07T10:40:00.856Z,71.80
2023-01-07T10:42:54.475Z,70.54
2023-01-07T10:45:39.698Z,71.04
2023-01-07T10:48:19.627Z,70.72
2023-01-07T10:50:55.982Z,70.55
2023-01-07T10:53:23.076Z,70.53
2023-01-07T10:56:36.925Z,71.55
2023-01-07T10:59:05.360Z,71.40
2023-01-07T11:01:39.807Z,71.13
2023-01-07T11:04:16.224Z,71.62
2023-01-07T11:06:49.346Z,71.25
2023-01-07T11:09:27.379Z,71.37
2023-01-07T11:11:58.210Z,71.03
2023-01-07T11:14:29.599Z,70.71
2023-01-07T11:17:43.060Z,71.49
2023-01-07T11:20:10.927Z,71.26
2023-01-07T11:22:41.405Z,70.95
2023-01-07T11:25:30.729Z,70.55
2023-01-07T11:28:03.598Z,70.72
2023-01-07T11:30:34.070Z,70.36
2023-01-07T11:33:07.194Z,70.60
2023-01-07T11:35:35.148Z,69.99
2023-01-07T11:38:02.222Z,69.59
2023-01-07T11:40:33.361Z,69.69
2023-01-07T11:43:24.150Z,70.42
2023-01-07T11:46:19.184Z,70.14
2023-01-07T11:48:53.064Z,70.16
2023-01-07T11:51:21.995Z,69.88
2023-01-07T11:53:59.874Z,69.76
2023-01-07T11:56:33.582Z,69.66
2023-01-07T11:59:15.546Z,70.00
2023-01-07T12:01:53.029Z,69.16
2023-01-07T12:04:28.229Z,69.68
2023-01-07T12:07:02.683Z,69.99
2023-01-07T12:09:32.746Z,70.22
2023-01-07T12:12:07.908Z,69.89
2023-01-07T12:14:38.422Z,70.06
2023-01-07T12:17:11.288Z,69.64
2023-01-07T12:19:59.195Z,70.13
2023-01-07T12:22:50.230Z,69.50
2023-01-07T12:25:33.717Z,69.53
2023-01-07T12:28:13.130Z,69.43
2023-01-07T12:31:14.436Z,70.09
2023-01-07T12:34:14.377Z,70.08
2023-01-07T12:37:10.740Z,70.78
2023-01-07T12:39:45.487Z,70.24
2023-01-07T12:44:59.523Z,70.21
2023-01-07T12:47:35.016Z,69.76
2023-01-07T12:50:14.303Z,69.91
2023-01-07T12:52:50.452Z,70.16
2023-01-07T12:55:21.097Z,70.07
2023-01-07T12:58:04.259Z,69.51
2023-01-07T13:00:43.172Z,69.78
2023-01-07T13:03:45.542Z,69.14
2023-01-07T13:06:44.863Z,70.11
2023-01-07T13:09:30.267Z,69.75
2023-01-07T13:12:48.501Z,71.00
2023-01-07T13:15:29.586Z,70.12
2023-01-07T13:17:58.783Z,69.62
2023-01-07T13:20:44.952Z,69.82
2023-01-07T13:23:24.113Z,68.92
2023-01-07T13:26:27.054Z,70.29
2023-01-07T13:29:05.964Z,69.90
2023-01-07T13:31:55.055Z,69.50
2023-01-07T13:34:34.360Z,68.81
2023-01-07T13:37:35.113Z,68.93
2023-01-07T13:40:20.722Z,68.91
2023-01-07T13:42:50.636Z,68.40
2023-01-07T13:45:23.548Z,68.60
2023-01-07T13:48:03.211Z,68.74
2023-01-07T13:50:43.788Z,69.03
2023-01-07T13:53:17.102Z,68.88
2023-01-07T13:55:46.359Z,68.87
2023-01-07T13:59:00.781Z,69.57
2023-01-07T14:01:34.643Z,69.21
2023-01-07T14:04:06.753Z,68.89
2023-01-07T14:06:44.395Z,68.57
2023-01-07T14:09:25.033Z,68.55
2023-01-07T14:12:28.917Z,68.73
2023-01-07T14:15:17.640Z,68.81
2023-01-07T14:18:12.919Z,69.53
2023-01-07T14:20:49.335Z,69.13
2023-01-07T14:23:20.098Z,68.59
2023-01-07T14:25:59.356Z,68.69
2023-01-07T14:28:47.908Z,68.76
2023-01-07T14:31:27.234Z,69.31
2023-01-07T14:34:02.105Z,68.73
2023-01-07T14:37:08.688Z,69.02
2023-01-07T14:39:44.537Z,69.02
2023-01-07T14:42:20.609Z,69.01
2023-01-07T14:44:51.783Z,68.89
2023-01-07T14:47:43.737Z,69.29
2023-01-07T14:50:13.848Z,69.00
2023-01-07T14:53:10.176Z,69.65
2023-01-07T14:55:43.178Z,69.64
2023-01-07T14:58:36.189Z,69.82
2023-01-07T15:01:26.884Z,69.67
2023-01-07T15:04:18.686Z,68.54
2023-01-07T15:06:46.203Z,69.01
2023-01-07T15:09:35.819Z,68.95
2023-01-07T15:12:33.386Z,68.97
2023-01-07T15:15:35.447Z,69.39
2023-01-07T15:18:07.846Z,69.26
2023-01-07T15:20:56.189Z,68.95
2023-01-07T15:23:37.757Z,68.74
2023-01-07T15:26:41.463Z,68.59
2023-01-07T15:29:14.611Z,68.79
2023-01-07T15:32:14.459Z,69.04
2023-01-07T15:34:41.957Z,69.04
2023-01-07T15:37:14.728Z,69.07
2023-01-07T15:39:49.867Z,68.21
2023-01-07T15:42:20.446Z,70.58
2023-01-07T15:44:56.735Z,68.85
2023-01-07T15:47:27.155Z,68.58
2023-01-07T15:49:54.191Z,68.83
2023-01-07T15:52:27.345Z,68.70
2023-01-07T15:55:13.335Z,69.05
2023-01-07T15:57:41.245Z,68.91
2023-01-07T16:00:13.590Z,68.59
2023-01-07T16:02:44.283Z,67.66
2023-01-07T16:05:11.624Z,68.02
2023-01-07T16:07:54.543Z,67.67
2023-01-07T16:10:23.435Z,68.07
2023-01-07T16:12:53.029Z,67.70
2023-01-07T16:15:28.222Z,67.87
2023-01-07T16:18:21.812Z,67.91
2023-01-07T16:21:00.622Z,67.23
2023-01-07T16:23:33.381Z,67.87
2023-01-07T16:26:11.722Z,68.07
2023-01-07T16:28:40.597Z,67.98
2023-01-07T16:31:10.963Z,68.35
2023-01-07T16:33:39.157Z,67.72
2023-01-07T16:36:17.235Z,67.67
2023-01-07T16:38:47.016Z,67.18
2023-01-07T16:41:26.909Z,67.32
2023-01-07T16:43:55.562Z,67.03
2023-01-07T16:46:31.287Z,66.29
2023-01-07T16:49:29.997Z,66.78
2023-01-07T16:52:03.375Z,66.82
2023-01-07T16:54:34.420Z,66.79
2023-01-07T16:57:17.896Z,66.97
2023-01-07T16:59:55.714Z,67.14
2023-01-07T17:02:34.345Z,67.33
2023-01-07T17:05:20.016Z,66.85
2023-01-07T17:07:57.415Z,64.89
2023-01-07T17:10:36.731Z,65.17
2023-01-07T17:13:26.843Z,66.56
2023-01-07T17:16:27.602Z,66.90
2023-01-07T17:18:55.074Z,67.44
2023-01-07T17:21:38.859Z,67.33
2023-01-07T17:24:20.607Z,67.69
2023-01-07T17:26:51.528Z,67.80
2023-01-07T17:29:19.974Z,67.89
2023-01-07T17:31:47.691Z,67.39
2023-01-07T17:34:16.226Z,67.83
2023-01-07T17:36:43.440Z,67.70
2023-01-07T17:39:10.631Z,67.74
2023-01-07T17:41:56.639Z,67.58
2023-01-07T17:44:23.982Z,67.93
2023-01-07T17:46:51.362Z,67.09
2023-01-07T17:49:20.477Z,67.49
2023-01-07T17:51:49.771Z,67.31
2023-01-07T17:54:22.969Z,67.02
2023-01-07T17:56:52.396Z,67.14
2023-01-07T17:59:22.697Z,67.08
2023-01-07T18:01:53.386Z,67.65
2023-01-07T18:04:22.670Z,67.79
2023-01-07T18:06:51.804Z,67.54
2023-01-07T18:09:19.090Z,66.99
2023-01-07T18:12:05.096Z,67.64
2023-01-07T18:14:32.805Z,67.65
2023-01-07T18:17:00.359Z,66.99
2023-01-07T18:19:27.658Z,67.11
2023-01-07T18:21:54.781Z,67.41
2023-01-07T18:24:22.599Z,66.92
2023-01-07T18:26:50.735Z,66.74
2023-01-07T18:29:17.849Z,66.67
2023-01-07T18:31:45.114Z,65.95
2023-01-07T18:34:15.029Z,66.41
2023-01-07T18:36:42.766Z,66.74
2023-01-07T18:39:19.230Z,66.06
2023-01-07T18:41:50.180Z,66.26
2023-01-07T18:44:19.184Z,66.35
2023-01-07T18:46:46.646Z,66.08
2023-01-07T18:49:14.241Z,65.76
2023-01-07T18:51:42.125Z,66.45
2023-01-07T18:54:09.428Z,66.53
2023-01-07T18:56:36.616Z,65.62
2023-01-07T18:59:03.945Z,65.98
2023-01-07T19:01:31.470Z,66.35
2023-01-07T19:03:59.047Z,66.50
2023-01-07T19:06:26.960Z,66.48
2023-01-07T19:08:55.602Z,66.76
2023-01-07T19:11:22.776Z,66.46
2023-01-07T19:13:49.881Z,66.21
2023-01-07T19:16:17.160Z,65.86
2023-01-07T19:18:44.438Z,65.89
2023-01-07T19:21:14.440Z,66.09
2023-01-07T19:23:47.362Z,66.56
2023-01-07T19:26:22.332Z,66.51
2023-01-07T19:28:49.647Z,65.85
2023-01-07T19:31:16.902Z,66.59
2023-01-07T19:33:44.323Z,66.80
2023-01-07T19:36:12.853Z,66.72
2023-01-07T19:38:42.133Z,66.92
2023-01-07T19:41:11.508Z,66.65
2023-01-07T19:43:39.392Z,66.27
2023-01-07T19:46:08.283Z,66.28
2023-01-07T19:48:35.552Z,66.78
2023-01-07T19:51:04.417Z,66.54
2023-01-07T19:53:33.241Z,66.56
2023-01-07T19:56:02.239Z,66.29
2023-01-07T19:58:30.804Z,65.97
2023-01-07T20:01:06.077Z,65.69
2023-01-07T20:03:35.069Z,65.79
2023-01-07T20:06:07.595Z,65.40
2023-01-07T20:08:36.477Z,66.05
2023-01-07T20:11:03.754Z,65.48
2023-01-07T20:13:35.194Z,65.91
2023-01-07T20:16:06.808Z,66.25
2023-01-07T20:18:42.818Z,65.79
2023-01-07T20:21:11.219Z,65.52
2023-01-07T20:23:40.271Z,65.45
2023-01-07T20:26:14.722Z,65.76
2023-01-07T20:28:42.252Z,65.85
2023-01-07T20:31:13.828Z,65.30
2023-01-07T20:33:42.127Z,65.85
2023-01-07T20:36:12.409Z,65.27
2023-01-07T20:38:39.558Z,65.15
2023-01-07T20:41:08.407Z,65.45
2023-01-07T20:43:36.983Z,65.32
2023-01-07T20:46:06.540Z,65.13
2023-01-07T20:48:35.511Z,65.24
2023-01-07T20:51:09.993Z,65.38
2023-01-07T20:53:37.727Z,65.16
2023-01-07T20:56:06.556Z,65.01
2023-01-07T20:58:35.934Z,65.15
2023-01-07T21:01:04.706Z,65.28
2023-01-07T21:03:31.997Z,65.40
2023-01-07T21:05:59.196Z,65.22
2023-01-07T21:08:26.629Z,65.06
2023-01-07T21:10:53.926Z,65.59
2023-01-07T21:13:22.361Z,65.52
2023-01-07T21:15:49.920Z,65.22
2023-01-07T21:18:17.195Z,65.24
2023-01-07T21:20:45.341Z,65.19
2023-01-07T21:23:12.562Z,65.15
2023-01-07T21:25:40.909Z,64.54
2023-01-07T21:28:08.073Z,64.37
2023-01-07T21:30:35.313Z,64.09
2023-01-07T21:33:02.524Z,64.99
2023-01-07T21:35:29.644Z,64.95
2023-01-07T21:37:56.999Z,65.08
2023-01-07T21:40:24.192Z,64.82
2023-01-07T21:42:51.580Z,65.01
2023-01-07T21:45:19.181Z,65.33
2023-01-07T21:47:46.558Z,64.96
2023-01-07T21:50:15.190Z,65.10
2023-01-07T21:52:42.952Z,64.93
2023-01-07T21:55:10.837Z,65.16
2023-01-07T21:57:38.433Z,64.86
2023-01-07T22:00:07.338Z,64.59
2023-01-07T22:02:39.679Z,64.59
2023-01-07T22:05:07.399Z,64.61
2023-01-07T22:07:34.534Z,64.57
2023-01-07T22:10:02.510Z,64.33
2023-01-07T22:12:30.764Z,64.73
2023-01-07T22:14:57.887Z,64.45
2023-01-07T22:17:25.203Z,64.56
2023-01-07T22:19:52.283Z,64.66
2023-01-07T22:22:21.041Z,64.57
2023-01-07T22:24:48.209Z,64.44
2023-01-07T22:27:15.989Z,64.48
2023-01-07T22:29:44.697Z,64.21
2023-01-07T22:32:11.783Z,64.35
2023-01-07T22:34:39.034Z,65.03
2023-01-07T22:37:18.079Z,64.80
2023-01-07T22:39:51.976Z,64.81
2023-01-07T22:42:25.993Z,64.75
2023-01-07T22:45:04.555Z,65.02
2023-01-07T22:47:38.160Z,64.73
2023-01-07T22:50:06.768Z,64.40
2023-01-07T22:52:33.865Z,64.83
2023-01-07T22:55:01.481Z,64.50
2023-01-07T22:57:30.737Z,64.42
2023-01-07T22:59:59.173Z,64.50
2023-01-07T23:02:27.390Z,64.90
2023-01-07T23:04:54.771Z,64.21
2023-01-07T23:07:21.991Z,64.33
2023-01-07T23:09:51.447Z,64.26
2023-01-07T23:12:18.812Z,64.17
2023-01-07T23:14:45.994Z,63.97
2023-01-07T23:17:13.250Z,64.32
2023-01-07T23:19:40.949Z,63.72
2023-01-07T23:22:08.127Z,63.95
2023-01-07T23:24:36.265Z,64.10
2023-01-07T23:27:03.525Z,63.73
2023-01-07T23:29:30.932Z,63.38
2023-01-07T23:31:58.085Z,63.87
2023-01-07T23:34:25.622Z,63.53
2023-01-07T23:36:52.767Z,63.90
2023-01-07T23:39:19.894Z,64.09
2023-01-07T23:41:47.105Z,63.69
2023-01-07T23:44:14.407Z,63.53
2023-01-07T23:46:41.508Z,63.46
2023-01-07T23:49:08.566Z,63.86
2023-01-07T23:51:35.718Z,63.85
2023-01-07T23:54:02.818Z,63.48
2023-01-07T23:56:30.180Z,63.82
2023-01-07T23:58:57.602Z,63.80
